sensor_id;sensor_type;location;lat;lon;timestamp;temperature;humidity
25128;DHT22;13107;51.304;6.866;2023-03-01T00:02:05;-2.90;99.90
25128;DHT22;13107;51.304;6.866;2023-03-01T00:06:08;-3.00;99.90
25128;DHT22;13107;51.304;6.866;2023-03-01T00:10:10;-2.90;99.90
25128;DHT22;13107;51.304;6.866;2023-03-01T00:14:13;-3.00;99.90
25128;DHT22;13107;51.304;6.866;2023-03-01T00:18:14;-2.90;99.90
25128;DHT22;13107;51.304;6.866;2023-03-01T00:22:16;-3.00;99.90
25128;DHT22;13107;51.304;6.866;2023-03-01T00:26:20;-3.00;99.90
25128;DHT22;13107;51.304;6.866;2023-03-01T00:30:22;-3.10;99.90
25128;DHT22;13107;51.304;6.866;2023-03-01T00:34:23;-3.10;99.90
25128;DHT22;13107;51.304;6.866;2023-03-01T00:38:25;-3.10;99.90
25128;DHT22;13107;51.304;6.866;2023-03-01T00:42:27;-3.20;99.90
25128;DHT22;13107;51.304;6.866;2023-03-01T00:46:29;-3.10;99.90
25128;DHT22;13107;51.304;6.866;2023-03-01T00:50:32;-3.10;99.90
25128;DHT22;13107;51.304;6.866;2023-03-01T00:54:34;-3.10;99.90
25128;DHT22;13107;51.304;6.866;2023-03-01T00:58:36;-3.20;99.90
25128;DHT22;13107;51.304;6.866;2023-03-01T01:02:38;-3.20;99.90
25128;DHT22;13107;51.304;6.866;2023-03-01T01:06:42;-3.20;99.90
25128;DHT22;13107;51.304;6.866;2023-03-01T01:10:45;-3.10;99.90
25128;DHT22;13107;51.304;6.866;2023-03-01T01:14:47;-3.10;99.90
25128;DHT22;13107;51.304;6.866;2023-03-01T01:18:50;-3.10;99.90
25128;DHT22;13107;51.304;6.866;2023-03-01T01:22:52;-3.00;99.90
25128;DHT22;13107;51.304;6.866;2023-03-01T01:26:53;-3.00;99.90
25128;DHT22;13107;51.304;6.866;2023-03-01T01:30:55;-3.00;99.90
25128;DHT22;13107;51.304;6.866;2023-03-01T01:34:57;-3.10;99.90
25128;DHT22;13107;51.304;6.866;2023-03-01T01:38:59;-3.00;99.90
25128;DHT22;13107;51.304;6.866;2023-03-01T01:43:01;-3.00;99.90
25128;DHT22;13107;51.304;6.866;2023-03-01T01:47:16;-2.90;99.90
25128;DHT22;13107;51.304;6.866;2023-03-01T01:51:23;-3.00;99.90
25128;DHT22;13107;51.304;6.866;2023-03-01T01:55:26;-3.00;99.90
25128;DHT22;13107;51.304;6.866;2023-03-01T01:59:31;-3.10;99.90
25128;DHT22;13107;51.304;6.866;2023-03-01T02:03:36;-3.10;99.90
25128;DHT22;13107;51.304;6.866;2023-03-01T02:07:44;-3.20;99.90
25128;DHT22;13107;51.304;6.866;2023-03-01T02:11:47;-3.10;99.90
25128;DHT22;13107;51.304;6.866;2023-03-01T02:15:49;-3.10;99.90
25128;DHT22;13107;51.304;6.866;2023-03-01T02:20:16;-3.20;99.90
25128;DHT22;13107;51.304;6.866;2023-03-01T02:24:29;-3.10;99.90
25128;DHT22;13107;51.304;6.866;2023-03-01T02:28:38;-3.00;99.90
25128;DHT22;13107;51.304;6.866;2023-03-01T02:32:41;-2.70;99.90
25128;DHT22;13107;51.304;6.866;2023-03-01T02:36:52;-2.40;99.90
25128;DHT22;13107;51.304;6.866;2023-03-01T02:40:57;-2.20;99.90
25128;DHT22;13107;51.304;6.866;2023-03-01T02:44:59;-2.20;99.90
25128;DHT22;13107;51.304;6.866;2023-03-01T02:49:00;-2.20;99.90
25128;DHT22;13107;51.304;6.866;2023-03-01T02:53:13;-2.20;99.90
25128;DHT22;13107;51.304;6.866;2023-03-01T02:57:17;-2.20;99.90
25128;DHT22;13107;51.304;6.866;2023-03-01T03:01:20;-2.30;99.90
25128;DHT22;13107;51.304;6.866;2023-03-01T03:05:27;-2.30;99.90
25128;DHT22;13107;51.304;6.866;2023-03-01T03:09:29;-2.20;99.90
25128;DHT22;13107;51.304;6.866;2023-03-01T03:13:31;-2.10;99.90
25128;DHT22;13107;51.304;6.866;2023-03-01T03:17:35;-2.10;99.90
25128;DHT22;13107;51.304;6.866;2023-03-01T03:21:37;-2.20;99.90
25128;DHT22;13107;51.304;6.866;2023-03-01T03:25:38;-2.20;99.90
25128;DHT22;13107;51.304;6.866;2023-03-01T03:29:40;-2.30;99.90
25128;DHT22;13107;51.304;6.866;2023-03-01T03:33:42;-2.40;99.90
25128;DHT22;13107;51.304;6.866;2023-03-01T03:37:44;-2.40;99.90
25128;DHT22;13107;51.304;6.866;2023-03-01T03:42:04;-2.40;99.90
25128;DHT22;13107;51.304;6.866;2023-03-01T03:46:06;-2.40;99.90
25128;DHT22;13107;51.304;6.866;2023-03-01T03:50:10;-2.40;99.90
25128;DHT22;13107;51.304;6.866;2023-03-01T03:54:12;-2.60;99.90
25128;DHT22;13107;51.304;6.866;2023-03-01T03:58:15;-2.50;99.90
25128;DHT22;13107;51.304;6.866;2023-03-01T04:02:17;-2.50;99.90
25128;DHT22;13107;51.304;6.866;2023-03-01T04:06:23;-2.50;99.90
25128;DHT22;13107;51.304;6.866;2023-03-01T04:10:25;-2.40;99.90
25128;DHT22;13107;51.304;6.866;2023-03-01T04:14:27;-2.40;99.90
25128;DHT22;13107;51.304;6.866;2023-03-01T04:18:28;-2.40;99.90
25128;DHT22;13107;51.304;6.866;2023-03-01T04:22:30;-2.40;99.90
25128;DHT22;13107;51.304;6.866;2023-03-01T04:26:33;-2.50;99.90
25128;DHT22;13107;51.304;6.866;2023-03-01T04:30:36;-2.50;99.90
25128;DHT22;13107;51.304;6.866;2023-03-01T04:34:38;-2.50;99.90
25128;DHT22;13107;51.304;6.866;2023-03-01T04:38:40;-2.50;99.90
25128;DHT22;13107;51.304;6.866;2023-03-01T04:42:42;-2.50;99.90
25128;DHT22;13107;51.304;6.866;2023-03-01T04:46:44;-2.50;99.90
25128;DHT22;13107;51.304;6.866;2023-03-01T04:50:46;-2.50;99.90
25128;DHT22;13107;51.304;6.866;2023-03-01T04:54:47;-2.50;99.90
25128;DHT22;13107;51.304;6.866;2023-03-01T04:58:49;-2.60;99.90
25128;DHT22;13107;51.304;6.866;2023-03-01T05:02:54;-2.60;99.90
25128;DHT22;13107;51.304;6.866;2023-03-01T05:06:56;-2.60;99.90
25128;DHT22;13107;51.304;6.866;2023-03-01T05:11:00;-2.60;99.90
25128;DHT22;13107;51.304;6.866;2023-03-01T05:15:01;-2.60;99.90
25128;DHT22;13107;51.304;6.866;2023-03-01T05:19:08;-2.60;99.90
25128;DHT22;13107;51.304;6.866;2023-03-01T05:23:16;-2.70;99.90
25128;DHT22;13107;51.304;6.866;2023-03-01T05:27:18;-2.70;99.90
25128;DHT22;13107;51.304;6.866;2023-03-01T05:31:23;-2.60;99.90
25128;DHT22;13107;51.304;6.866;2023-03-01T05:35:25;-2.60;99.90
25128;DHT22;13107;51.304;6.866;2023-03-01T05:39:28;-2.60;99.90
25128;DHT22;13107;51.304;6.866;2023-03-01T05:43:31;-2.50;99.90
25128;DHT22;13107;51.304;6.866;2023-03-01T05:47:35;-2.50;99.90
25128;DHT22;13107;51.304;6.866;2023-03-01T05:51:37;-2.60;99.90
25128;DHT22;13107;51.304;6.866;2023-03-01T05:55:39;-2.50;99.90
25128;DHT22;13107;51.304;6.866;2023-03-01T05:59:41;-2.50;99.90
25128;DHT22;13107;51.304;6.866;2023-03-01T06:03:42;-2.50;99.90
25128;DHT22;13107;51.304;6.866;2023-03-01T06:07:44;-2.50;99.90
25128;DHT22;13107;51.304;6.866;2023-03-01T06:11:46;-2.50;99.90
25128;DHT22;13107;51.304;6.866;2023-03-01T06:15:47;-2.40;99.90
25128;DHT22;13107;51.304;6.866;2023-03-01T06:19:49;-2.40;99.90
25128;DHT22;13107;51.304;6.866;2023-03-01T06:23:51;-2.50;99.90
25128;DHT22;13107;51.304;6.866;2023-03-01T06:27:54;-2.50;99.90
25128;DHT22;13107;51.304;6.866;2023-03-01T06:31:55;-2.40;99.90
25128;DHT22;13107;51.304;6.866;2023-03-01T06:35:57;-2.40;99.90
25128;DHT22;13107;51.304;6.866;2023-03-01T06:39:59;-2.40;99.90
25128;DHT22;13107;51.304;6.866;2023-03-01T06:44:01;-2.40;99.90
25128;DHT22;13107;51.304;6.866;2023-03-01T06:48:07;-2.40;99.90
25128;DHT22;13107;51.304;6.866;2023-03-01T06:52:08;-2.30;99.90
25128;DHT22;13107;51.304;6.866;2023-03-01T06:56:10;-2.30;99.90
25128;DHT22;13107;51.304;6.866;2023-03-01T07:00:12;-2.30;99.90
25128;DHT22;13107;51.304;6.866;2023-03-01T07:04:14;-2.30;99.90
25128;DHT22;13107;51.304;6.866;2023-03-01T07:08:16;-2.30;99.90
25128;DHT22;13107;51.304;6.866;2023-03-01T07:12:17;-2.30;99.90
25128;DHT22;13107;51.304;6.866;2023-03-01T07:16:19;-2.20;99.90
25128;DHT22;13107;51.304;6.866;2023-03-01T07:20:21;-2.20;99.90
25128;DHT22;13107;51.304;6.866;2023-03-01T07:24:26;-2.10;99.90
25128;DHT22;13107;51.304;6.866;2023-03-01T07:28:27;-2.00;99.90
25128;DHT22;13107;51.304;6.866;2023-03-01T07:32:30;-2.00;99.90
25128;DHT22;13107;51.304;6.866;2023-03-01T07:36:31;-1.80;99.90
25128;DHT22;13107;51.304;6.866;2023-03-01T07:40:34;-1.70;99.90
25128;DHT22;13107;51.304;6.866;2023-03-01T07:44:36;-1.70;99.90
25128;DHT22;13107;51.304;6.866;2023-03-01T07:48:38;-1.60;99.90
25128;DHT22;13107;51.304;6.866;2023-03-01T07:52:39;-1.60;99.90
25128;DHT22;13107;51.304;6.866;2023-03-01T07:56:41;-1.50;99.90
25128;DHT22;13107;51.304;6.866;2023-03-01T08:00:43;-1.30;99.90
25128;DHT22;13107;51.304;6.866;2023-03-01T08:04:44;-1.20;99.90
25128;DHT22;13107;51.304;6.866;2023-03-01T08:08:47;-1.10;99.90
25128;DHT22;13107;51.304;6.866;2023-03-01T08:12:51;-0.80;99.90
25128;DHT22;13107;51.304;6.866;2023-03-01T08:16:53;-0.70;99.90
25128;DHT22;13107;51.304;6.866;2023-03-01T08:20:55;-0.60;99.90
25128;DHT22;13107;51.304;6.866;2023-03-01T08:24:56;-0.50;99.90
25128;DHT22;13107;51.304;6.866;2023-03-01T08:28:59;-0.40;99.90
25128;DHT22;13107;51.304;6.866;2023-03-01T08:33:01;-0.20;99.90
25128;DHT22;13107;51.304;6.866;2023-03-01T08:37:03;0.10;99.90
25128;DHT22;13107;51.304;6.866;2023-03-01T08:41:04;0.40;99.90
25128;DHT22;13107;51.304;6.866;2023-03-01T08:45:07;0.70;99.90
25128;DHT22;13107;51.304;6.866;2023-03-01T08:49:14;0.80;99.90
25128;DHT22;13107;51.304;6.866;2023-03-01T08:53:16;0.90;99.90
25128;DHT22;13107;51.304;6.866;2023-03-01T08:57:18;1.00;99.90
25128;DHT22;13107;51.304;6.866;2023-03-01T09:01:20;1.00;99.90
25128;DHT22;13107;51.304;6.866;2023-03-01T09:05:22;1.10;99.90
25128;DHT22;13107;51.304;6.866;2023-03-01T09:09:23;1.30;99.90
25128;DHT22;13107;51.304;6.866;2023-03-01T09:13:27;1.30;99.90
25128;DHT22;13107;51.304;6.866;2023-03-01T09:17:32;1.60;99.90
25128;DHT22;13107;51.304;6.866;2023-03-01T09:21:33;2.10;99.90
25128;DHT22;13107;51.304;6.866;2023-03-01T09:25:41;2.80;99.90
25128;DHT22;13107;51.304;6.866;2023-03-01T09:29:43;3.30;99.90
25128;DHT22;13107;51.304;6.866;2023-03-01T09:33:49;3.70;99.90
25128;DHT22;13107;51.304;6.866;2023-03-01T09:37:51;4.60;99.90
25128;DHT22;13107;51.304;6.866;2023-03-01T09:42:03;5.00;99.90
25128;DHT22;13107;51.304;6.866;2023-03-01T09:46:09;4.50;99.90
25128;DHT22;13107;51.304;6.866;2023-03-01T09:50:17;4.80;99.90
25128;DHT22;13107;51.304;6.866;2023-03-01T09:54:20;5.10;99.90
25128;DHT22;13107;51.304;6.866;2023-03-01T10:02:39;5.90;99.90
25128;DHT22;13107;51.304;6.866;2023-03-01T10:06:58;6.60;99.90
25128;DHT22;13107;51.304;6.866;2023-03-01T10:11:04;6.70;99.90
25128;DHT22;13107;51.304;6.866;2023-03-01T10:15:07;6.50;99.90
25128;DHT22;13107;51.304;6.866;2023-03-01T10:19:56;7.80;99.90
25128;DHT22;13107;51.304;6.866;2023-03-01T10:23:38;8.00;97.70
25128;DHT22;13107;51.304;6.866;2023-03-01T10:27:51;9.40;94.10
25128;DHT22;13107;51.304;6.866;2023-03-01T10:31:54;9.50;90.40
25128;DHT22;13107;51.304;6.866;2023-03-01T10:35:56;9.30;90.30
25128;DHT22;13107;51.304;6.866;2023-03-01T10:40:04;7.60;91.80
25128;DHT22;13107;51.304;6.866;2023-03-01T10:45:14;6.80;93.20
25128;DHT22;13107;51.304;6.866;2023-03-01T10:49:20;6.00;96.20
25128;DHT22;13107;51.304;6.866;2023-03-01T10:57:38;4.80;99.90
25128;DHT22;13107;51.304;6.866;2023-03-01T11:01:43;4.70;99.90
25128;DHT22;13107;51.304;6.866;2023-03-01T11:09:58;4.60;99.90
25128;DHT22;13107;51.304;6.866;2023-03-01T11:14:07;4.40;99.90
25128;DHT22;13107;51.304;6.866;2023-03-01T11:18:29;4.40;99.90
25128;DHT22;13107;51.304;6.866;2023-03-01T11:22:52;4.40;99.90
25128;DHT22;13107;51.304;6.866;2023-03-01T11:26:55;4.50;99.90
25128;DHT22;13107;51.304;6.866;2023-03-01T11:35:10;4.80;99.90
25128;DHT22;13107;51.304;6.866;2023-03-01T11:39:28;4.80;99.90
25128;DHT22;13107;51.304;6.866;2023-03-01T11:43:52;4.90;99.90
25128;DHT22;13107;51.304;6.866;2023-03-01T11:52:55;4.90;99.90
25128;DHT22;13107;51.304;6.866;2023-03-01T12:01:25;6.00;99.90
25128;DHT22;13107;51.304;6.866;2023-03-01T12:18:25;7.00;97.00
25128;DHT22;13107;51.304;6.866;2023-03-01T12:22:42;8.20;94.30
25128;DHT22;13107;51.304;6.866;2023-03-01T12:44:46;9.70;78.80
25128;DHT22;13107;51.304;6.866;2023-03-01T12:52:56;9.40;81.40
25128;DHT22;13107;51.304;6.866;2023-03-01T12:57:26;9.90;79.20
25128;DHT22;13107;51.304;6.866;2023-03-01T13:01:32;10.80;77.40
25128;DHT22;13107;51.304;6.866;2023-03-01T13:05:46;10.70;73.10
25128;DHT22;13107;51.304;6.866;2023-03-01T13:10:05;9.60;75.00
25128;DHT22;13107;51.304;6.866;2023-03-01T13:22:33;10.90;72.10
25128;DHT22;13107;51.304;6.866;2023-03-01T13:43:41;11.00;70.60
25128;DHT22;13107;51.304;6.866;2023-03-01T13:47:45;10.80;68.90
25128;DHT22;13107;51.304;6.866;2023-03-01T13:51:49;10.00;72.20
25128;DHT22;13107;51.304;6.866;2023-03-01T13:55:55;10.40;72.90
25128;DHT22;13107;51.304;6.866;2023-03-01T14:00:00;11.20;70.60
25128;DHT22;13107;51.304;6.866;2023-03-01T14:04:03;11.10;69.80
25128;DHT22;13107;51.304;6.866;2023-03-01T14:08:22;11.10;69.20
25128;DHT22;13107;51.304;6.866;2023-03-01T14:16:55;11.30;68.30
25128;DHT22;13107;51.304;6.866;2023-03-01T14:20:59;11.00;70.20
25128;DHT22;13107;51.304;6.866;2023-03-01T14:25:17;9.70;73.60
25128;DHT22;13107;51.304;6.866;2023-03-01T14:29:39;9.70;74.10
25128;DHT22;13107;51.304;6.866;2023-03-01T14:33:40;9.80;71.80
25128;DHT22;13107;51.304;6.866;2023-03-01T14:37:43;9.80;73.50
25128;DHT22;13107;51.304;6.866;2023-03-01T14:41:45;9.80;71.90
25128;DHT22;13107;51.304;6.866;2023-03-01T14:45:48;9.00;72.70
25128;DHT22;13107;51.304;6.866;2023-03-01T14:50:13;8.30;74.90
25128;DHT22;13107;51.304;6.866;2023-03-01T14:54:43;7.40;78.30
25128;DHT22;13107;51.304;6.866;2023-03-01T14:58:46;6.90;80.90
25128;DHT22;13107;51.304;6.866;2023-03-01T15:02:53;6.60;83.60
25128;DHT22;13107;51.304;6.866;2023-03-01T15:06:57;6.50;84.00
25128;DHT22;13107;51.304;6.866;2023-03-01T15:15:33;6.50;88.80
25128;DHT22;13107;51.304;6.866;2023-03-01T15:19:36;6.50;89.50
25128;DHT22;13107;51.304;6.866;2023-03-01T15:23:38;6.40;89.70
25128;DHT22;13107;51.304;6.866;2023-03-01T15:27:45;6.40;90.20
25128;DHT22;13107;51.304;6.866;2023-03-01T15:31:58;6.40;89.40
25128;DHT22;13107;51.304;6.866;2023-03-01T15:36:03;6.40;90.00
25128;DHT22;13107;51.304;6.866;2023-03-01T15:40:37;6.30;90.50
25128;DHT22;13107;51.304;6.866;2023-03-01T15:44:50;6.20;88.90
25128;DHT22;13107;51.304;6.866;2023-03-01T15:49:40;6.20;88.50
25128;DHT22;13107;51.304;6.866;2023-03-01T15:53:56;6.10;87.80
25128;DHT22;13107;51.304;6.866;2023-03-01T15:58:10;6.00;88.00
25128;DHT22;13107;51.304;6.866;2023-03-01T16:02:13;5.90;87.60
25128;DHT22;13107;51.304;6.866;2023-03-01T16:06:15;5.80;87.60
25128;DHT22;13107;51.304;6.866;2023-03-01T16:10:17;5.80;89.40
25128;DHT22;13107;51.304;6.866;2023-03-01T16:14:19;5.70;89.30
25128;DHT22;13107;51.304;6.866;2023-03-01T16:18:21;5.70;90.00
25128;DHT22;13107;51.304;6.866;2023-03-01T16:22:23;5.60;90.50
25128;DHT22;13107;51.304;6.866;2023-03-01T16:26:26;5.50;91.00
25128;DHT22;13107;51.304;6.866;2023-03-01T16:30:28;5.40;91.50
25128;DHT22;13107;51.304;6.866;2023-03-01T16:34:30;5.30;91.70
25128;DHT22;13107;51.304;6.866;2023-03-01T16:38:32;5.30;92.10
25128;DHT22;13107;51.304;6.866;2023-03-01T16:42:35;5.20;92.00
25128;DHT22;13107;51.304;6.866;2023-03-01T16:46:36;5.10;92.80
25128;DHT22;13107;51.304;6.866;2023-03-01T16:50:39;5.10;92.60
25128;DHT22;13107;51.304;6.866;2023-03-01T16:54:40;4.90;93.40
25128;DHT22;13107;51.304;6.866;2023-03-01T16:58:43;4.80;93.60
25128;DHT22;13107;51.304;6.866;2023-03-01T17:02:45;4.70;94.30
25128;DHT22;13107;51.304;6.866;2023-03-01T17:06:46;4.60;94.90
25128;DHT22;13107;51.304;6.866;2023-03-01T17:10:49;4.50;94.90
25128;DHT22;13107;51.304;6.866;2023-03-01T17:14:51;4.30;95.50
25128;DHT22;13107;51.304;6.866;2023-03-01T17:18:53;4.40;95.80
25128;DHT22;13107;51.304;6.866;2023-03-01T17:22:54;4.20;96.50
25128;DHT22;13107;51.304;6.866;2023-03-01T17:26:56;4.20;96.80
25128;DHT22;13107;51.304;6.866;2023-03-01T17:31:00;4.00;97.60
25128;DHT22;13107;51.304;6.866;2023-03-01T17:35:01;3.90;98.00
25128;DHT22;13107;51.304;6.866;2023-03-01T17:39:03;3.70;99.00
25128;DHT22;13107;51.304;6.866;2023-03-01T17:43:05;3.70;99.40
25128;DHT22;13107;51.304;6.866;2023-03-01T17:47:06;3.60;99.70
25128;DHT22;13107;51.304;6.866;2023-03-01T17:51:10;3.60;99.90
25128;DHT22;13107;51.304;6.866;2023-03-01T17:55:12;3.50;99.90
25128;DHT22;13107;51.304;6.866;2023-03-01T17:59:14;3.40;99.90
25128;DHT22;13107;51.304;6.866;2023-03-01T18:03:18;3.40;99.90
25128;DHT22;13107;51.304;6.866;2023-03-01T18:07:21;3.30;99.90
25128;DHT22;13107;51.304;6.866;2023-03-01T18:11:24;3.30;99.90
25128;DHT22;13107;51.304;6.866;2023-03-01T18:15:26;3.30;99.90
25128;DHT22;13107;51.304;6.866;2023-03-01T18:19:27;3.20;99.90
25128;DHT22;13107;51.304;6.866;2023-03-01T18:23:31;3.30;99.90
25128;DHT22;13107;51.304;6.866;2023-03-01T18:27:33;3.20;99.90
25128;DHT22;13107;51.304;6.866;2023-03-01T18:31:35;3.10;99.90
25128;DHT22;13107;51.304;6.866;2023-03-01T18:35:37;2.90;99.90
25128;DHT22;13107;51.304;6.866;2023-03-01T18:39:39;3.00;99.90
25128;DHT22;13107;51.304;6.866;2023-03-01T18:43:42;2.90;99.90
25128;DHT22;13107;51.304;6.866;2023-03-01T18:47:43;2.90;99.90
25128;DHT22;13107;51.304;6.866;2023-03-01T18:51:45;2.90;99.90
25128;DHT22;13107;51.304;6.866;2023-03-01T18:55:47;2.80;99.90
25128;DHT22;13107;51.304;6.866;2023-03-01T18:59:49;2.80;99.90
25128;DHT22;13107;51.304;6.866;2023-03-01T19:03:51;2.90;99.90
25128;DHT22;13107;51.304;6.866;2023-03-01T19:07:53;2.90;99.90
25128;DHT22;13107;51.304;6.866;2023-03-01T19:11:55;2.90;99.90
25128;DHT22;13107;51.304;6.866;2023-03-01T19:16:11;3.00;99.90
25128;DHT22;13107;51.304;6.866;2023-03-01T19:20:13;3.00;99.90
25128;DHT22;13107;51.304;6.866;2023-03-01T19:24:15;3.10;99.90
25128;DHT22;13107;51.304;6.866;2023-03-01T19:28:16;3.10;99.90
25128;DHT22;13107;51.304;6.866;2023-03-01T19:32:18;3.20;99.90
25128;DHT22;13107;51.304;6.866;2023-03-01T19:36:20;3.20;99.90
25128;DHT22;13107;51.304;6.866;2023-03-01T19:40:22;3.20;99.90
25128;DHT22;13107;51.304;6.866;2023-03-01T19:44:24;3.10;99.90
25128;DHT22;13107;51.304;6.866;2023-03-01T19:48:26;3.10;99.90
25128;DHT22;13107;51.304;6.866;2023-03-01T19:52:28;3.00;99.90
25128;DHT22;13107;51.304;6.866;2023-03-01T19:56:29;3.00;99.90
25128;DHT22;13107;51.304;6.866;2023-03-01T20:00:33;3.10;99.90
25128;DHT22;13107;51.304;6.866;2023-03-01T20:04:34;3.00;99.90
25128;DHT22;13107;51.304;6.866;2023-03-01T20:08:36;3.00;99.90
25128;DHT22;13107;51.304;6.866;2023-03-01T20:12:38;2.90;99.90
25128;DHT22;13107;51.304;6.866;2023-03-01T20:16:40;2.90;99.90
25128;DHT22;13107;51.304;6.866;2023-03-01T20:20:41;2.80;99.90
25128;DHT22;13107;51.304;6.866;2023-03-01T20:24:43;2.90;99.90
25128;DHT22;13107;51.304;6.866;2023-03-01T20:28:46;2.70;99.90
25128;DHT22;13107;51.304;6.866;2023-03-01T20:32:48;2.70;99.90
25128;DHT22;13107;51.304;6.866;2023-03-01T20:36:50;2.60;99.90
25128;DHT22;13107;51.304;6.866;2023-03-01T20:41:03;2.60;99.90
25128;DHT22;13107;51.304;6.866;2023-03-01T20:45:06;2.60;99.90
25128;DHT22;13107;51.304;6.866;2023-03-01T20:49:07;2.50;99.90
25128;DHT22;13107;51.304;6.866;2023-03-01T20:53:11;2.50;99.90
25128;DHT22;13107;51.304;6.866;2023-03-01T20:57:13;2.50;99.90
25128;DHT22;13107;51.304;6.866;2023-03-01T21:01:16;2.50;99.90
25128;DHT22;13107;51.304;6.866;2023-03-01T21:05:19;2.30;99.90
25128;DHT22;13107;51.304;6.866;2023-03-01T21:09:20;2.40;99.90
25128;DHT22;13107;51.304;6.866;2023-03-01T21:13:23;2.30;99.90
25128;DHT22;13107;51.304;6.866;2023-03-01T21:17:25;2.30;99.90
25128;DHT22;13107;51.304;6.866;2023-03-01T21:21:27;2.30;99.90
25128;DHT22;13107;51.304;6.866;2023-03-01T21:25:28;2.30;99.90
25128;DHT22;13107;51.304;6.866;2023-03-01T21:29:40;2.30;99.90
25128;DHT22;13107;51.304;6.866;2023-03-01T21:33:44;2.20;99.90
25128;DHT22;13107;51.304;6.866;2023-03-01T21:37:46;2.20;99.90
25128;DHT22;13107;51.304;6.866;2023-03-01T21:41:49;2.30;99.90
25128;DHT22;13107;51.304;6.866;2023-03-01T21:45:50;2.10;99.90
25128;DHT22;13107;51.304;6.866;2023-03-01T21:49:52;2.10;99.90
25128;DHT22;13107;51.304;6.866;2023-03-01T21:53:54;2.10;99.90
25128;DHT22;13107;51.304;6.866;2023-03-01T21:57:56;2.10;99.90
25128;DHT22;13107;51.304;6.866;2023-03-01T22:01:58;2.00;99.90
25128;DHT22;13107;51.304;6.866;2023-03-01T22:06:00;2.00;99.90
25128;DHT22;13107;51.304;6.866;2023-03-01T22:10:03;2.00;99.90
25128;DHT22;13107;51.304;6.866;2023-03-01T22:14:05;2.00;99.90
25128;DHT22;13107;51.304;6.866;2023-03-01T22:18:08;2.00;99.90
25128;DHT22;13107;51.304;6.866;2023-03-01T22:22:10;1.90;99.90
25128;DHT22;13107;51.304;6.866;2023-03-01T22:26:25;1.90;99.90
25128;DHT22;13107;51.304;6.866;2023-03-01T22:30:27;1.90;99.90
25128;DHT22;13107;51.304;6.866;2023-03-01T22:34:29;1.90;99.90
25128;DHT22;13107;51.304;6.866;2023-03-01T22:38:31;1.80;99.90
25128;DHT22;13107;51.304;6.866;2023-03-01T22:42:33;1.70;99.90
25128;DHT22;13107;51.304;6.866;2023-03-01T22:46:34;1.60;99.90
25128;DHT22;13107;51.304;6.866;2023-03-01T22:50:36;1.60;99.90
25128;DHT22;13107;51.304;6.866;2023-03-01T22:54:38;1.60;99.90
25128;DHT22;13107;51.304;6.866;2023-03-01T22:58:40;1.60;99.90
25128;DHT22;13107;51.304;6.866;2023-03-01T23:02:42;1.50;99.90
25128;DHT22;13107;51.304;6.866;2023-03-01T23:06:44;1.50;99.90
25128;DHT22;13107;51.304;6.866;2023-03-01T23:10:56;1.60;99.90
25128;DHT22;13107;51.304;6.866;2023-03-01T23:14:57;1.50;99.90
25128;DHT22;13107;51.304;6.866;2023-03-01T23:18:59;1.40;99.90
25128;DHT22;13107;51.304;6.866;2023-03-01T23:23:01;1.50;99.90
25128;DHT22;13107;51.304;6.866;2023-03-01T23:27:03;1.40;99.90
25128;DHT22;13107;51.304;6.866;2023-03-01T23:31:07;1.30;99.90
25128;DHT22;13107;51.304;6.866;2023-03-01T23:35:09;1.30;99.90
25128;DHT22;13107;51.304;6.866;2023-03-01T23:39:12;1.50;99.90
25128;DHT22;13107;51.304;6.866;2023-03-01T23:43:14;1.20;99.90
25128;DHT22;13107;51.304;6.866;2023-03-01T23:47:16;1.20;99.90
25128;DHT22;13107;51.304;6.866;2023-03-01T23:51:17;1.10;99.90
25128;DHT22;13107;51.304;6.866;2023-03-01T23:55:20;1.00;99.90
25128;DHT22;13107;51.304;6.866;2023-03-01T23:59:23;0.90;99.90
